Time;durP1;ratioP1;P1;durP2;ratioP2;P2;SDS_P1;SDS_P2;PMS_P1;PMS_P2;Temp;Humidity;BMP_temperature;BMP_pressure;BME280_temperature;BME280_humidity;BME280_pressure;Samples;Min_cycle;Max_cycle;Signal;HPM_P1;HPM_P2
2024/03/18 00:00:17;;;;;;;8.60;2.60;;;;;;;5.71;76.53;99245.91;107122;1260;75189;-38
2024/03/18 00:02:50;;;;;;;8.90;2.70;;;;;;;5.55;76.73;99247.17;107121;1260;68578;-37
2024/03/18 00:05:18;;;;;;;6.90;2.50;;;;;;;5.43;77.10;99245.34;107122;1260;72464;-37
2024/03/18 00:07:45;;;;;;;6.20;2.40;;;;;;;5.35;77.29;99248.40;107137;1259;60496;-37
2024/03/18 00:10:12;;;;;;;12.00;2.80;;;;;;;5.28;77.68;99247.08;107083;1260;60139;-38
2024/03/18 00:12:39;;;;;;;11.40;2.70;;;;;;;5.28;77.83;99246.52;107136;1259;74555;-38
2024/03/18 00:15:08;;;;;;;7.50;2.40;;;;;;;5.30;77.86;99246.52;107140;1260;68016;-38
2024/03/18 00:17:34;;;;;;;8.80;2.30;;;;;;;5.23;78.06;99243.12;107114;1260;72969;-37
2024/03/18 00:20:07;;;;;;;8.60;2.60;;;;;;;5.17;78.22;99242.50;107116;1260;60418;-38
2024/03/18 00:22:37;;;;;;;8.90;2.50;;;;;;;5.10;78.56;99240.02;107096;1260;61108;-38
2024/03/18 00:25:06;;;;;;;10.10;2.90;;;;;;;5.04;78.74;99238.54;107048;1260;75184;-38
2024/03/18 00:27:33;;;;;;;7.60;2.60;;;;;;;5.04;78.62;99237.09;107166;1260;67923;-37
2024/03/18 00:30:07;;;;;;;9.10;2.70;;;;;;;5.05;78.52;99235.77;107118;1260;71550;-38
2024/03/18 00:32:34;;;;;;;7.90;2.20;;;;;;;5.01;78.87;99231.84;107149;1259;61298;-38
2024/03/18 00:35:01;;;;;;;7.40;2.20;;;;;;;4.97;78.91;99229.36;107144;1263;61163;-38
2024/03/18 00:37:28;;;;;;;7.00;2.50;;;;;;;4.96;79.22;99226.72;107088;1260;74682;-37
2024/03/18 00:39:55;;;;;;;11.20;2.60;;;;;;;4.96;79.16;99225.20;107125;1260;68311;-38
2024/03/18 00:42:21;;;;;;;8.90;2.70;;;;;;;4.97;79.35;99218.34;107084;1260;73441;-38
2024/03/18 00:44:48;;;;;;;7.80;2.20;;;;;;;5.10;79.18;99216.20;107122;1262;61103;-38
2024/03/18 00:47:15;;;;;;;7.00;2.00;;;;;;;5.19;79.05;99213.80;107105;1260;60376;-38
2024/03/18 00:49:42;;;;;;;8.50;1.90;;;;;;;5.23;79.09;99217.56;107137;1260;73144;-38
2024/03/18 00:52:08;;;;;;;8.60;2.70;;;;;;;5.27;78.95;99221.77;107118;1260;67922;-38
2024/03/18 00:54:36;;;;;;;7.10;2.10;;;;;;;5.28;78.82;99223.50;107101;1262;73188;-38
2024/03/18 00:57:03;;;;;;;4.60;2.00;;;;;;;5.29;78.78;99221.15;107144;1261;61084;-38
2024/03/18 00:59:30;;;;;;;9.40;2.10;;;;;;;5.30;78.70;99219.56;107119;1260;60171;-38
2024/03/18 01:01:58;;;;;;;8.60;2.30;;;;;;;5.41;78.38;99221.59;107112;1262;74446;-38
2024/03/18 01:04:25;;;;;;;4.50;1.70;;;;;;;5.53;78.12;99218.21;107130;1262;67892;-38
2024/03/18 01:06:52;;;;;;;10.20;2.90;;;;;;;5.57;77.86;99215.40;107089;1260;71619;-38
2024/03/18 01:09:18;;;;;;;10.00;2.30;;;;;;;5.57;77.80;99208.03;107052;1260;61127;-38
2024/03/18 01:11:45;;;;;;;10.20;2.40;;;;;;;5.57;77.67;99204.42;107170;1260;61237;-38
2024/03/18 01:14:12;;;;;;;8.40;2.00;;;;;;;5.58;77.51;99200.10;107095;1262;75203;-38
2024/03/18 01:16:40;;;;;;;7.40;2.30;;;;;;;5.57;77.34;99198.00;107076;1260;67986;-38
2024/03/18 01:19:07;;;;;;;7.60;2.10;;;;;;;5.55;77.14;99197.07;106982;1264;71344;-38
2024/03/18 01:21:34;;;;;;;7.00;2.00;;;;;;;5.60;76.89;99195.95;107063;1260;60326;-38
2024/03/18 01:24:01;;;;;;;10.00;2.10;;;;;;;5.66;76.73;99196.02;107148;1263;60393;-38
2024/03/18 01:26:27;;;;;;;7.00;1.70;;;;;;;5.66;76.62;99194.71;107143;1260;74949;-38
2024/03/18 01:28:54;;;;;;;9.40;2.60;;;;;;;5.60;76.40;99194.02;107135;1260;67953;-38
2024/03/18 01:31:21;;;;;;;8.60;2.50;;;;;;;5.54;76.57;99193.56;107117;1260;73095;-37
2024/03/18 01:33:48;;;;;;;9.70;2.50;;;;;;;5.51;76.68;99191.09;107109;1262;61707;-36
2024/03/18 01:36:15;;;;;;;8.20;2.60;;;;;;;5.52;76.95;99188.48;107098;1262;61240;-37
2024/03/18 01:38:43;;;;;;;5.30;2.10;;;;;;;5.53;76.96;99188.45;107208;1260;73957;-37
2024/03/18 01:41:09;;;;;;;8.00;2.10;;;;;;;5.60;76.62;99188.80;107166;1262;68499;-36
2024/03/18 01:43:37;;;;;;;6.20;2.00;;;;;;;5.65;76.40;99183.92;107128;1260;73121;-36
2024/03/18 01:46:22;;;;;;;7.50;2.00;;;;;;;5.66;76.53;99187.77;107103;1260;61806;-37
2024/03/18 01:48:49;;;;;;;8.10;2.30;;;;;;;5.67;76.46;99187.18;106951;1262;181518;-37
2024/03/18 01:52:19;;;;;;;7.90;2.40;;;;;;;5.66;76.36;99181.64;104135;1293;600367;-37
2024/03/18 01:54:47;;;;;;;7.40;2.10;;;;;;;5.65;76.47;99173.84;106620;1272;59569;-37
2024/03/18 01:57:14;;;;;;;7.00;1.90;;;;;;;5.66;76.53;99172.20;106579;1269;59290;-38
2024/03/18 01:59:42;;;;;;;6.50;2.10;;;;;;;5.74;76.32;99170.29;106610;1270;73054;-38
2024/03/18 02:02:11;;;;;;;5.30;1.70;;;;;;;5.80;75.92;99173.50;106636;1270;67930;-38
2024/03/18 02:04:38;;;;;;;6.10;2.10;;;;;;;5.80;75.95;99173.11;106607;1270;71067;-38
2024/03/18 02:07:21;;;;;;;4.10;1.70;;;;;;;5.79;75.96;99173.73;106604;1267;231101;-38
2024/03/18 02:09:49;;;;;;;8.10;2.20;;;;;;;5.78;75.80;99174.33;106740;1269;60586;-38
2024/03/18 02:12:17;;;;;;;8.30;2.10;;;;;;;5.71;75.61;99168.29;106739;1266;73496;-38
2024/03/18 02:14:50;;;;;;;7.70;2.10;;;;;;;5.62;75.69;99164.23;106760;1266;66720;-38
2024/03/18 02:17:18;;;;;;;7.00;2.20;;;;;;;5.52;75.96;99151.70;106619;1267;70535;-38
2024/03/18 02:19:46;;;;;;;7.20;2.00;;;;;;;5.63;75.80;99155.94;106592;1269;60329;-38
2024/03/18 02:22:13;;;;;;;5.70;1.90;;;;;;;5.68;75.65;99161.64;106631;1266;60613;-38
2024/03/18 02:24:41;;;;;;;8.60;2.30;;;;;;;5.64;75.47;99170.34;106695;1270;72573;-38
2024/03/18 02:27:10;;;;;;;4.40;1.90;;;;;;;5.49;75.57;99172.03;106748;1266;66259;-38
2024/03/18 02:29:37;;;;;;;6.80;2.10;;;;;;;5.32;75.91;99178.42;106788;1266;72685;-38
2024/03/18 02:32:05;;;;;;;5.00;1.90;;;;;;;5.18;76.24;99180.35;106716;1266;60353;-38
2024/03/18 02:34:38;;;;;;;7.10;2.20;;;;;;;5.05;76.30;99177.04;106762;1267;60434;-38
2024/03/18 02:37:06;;;;;;;7.20;1.90;;;;;;;5.03;76.63;99174.71;106729;1267;73848;-38
2024/03/18 02:39:33;;;;;;;6.60;2.10;;;;;;;5.06;77.01;99171.81;106721;1267;67751;-38
2024/03/18 02:42:00;;;;;;;7.30;2.90;;;;;;;5.08;77.56;99169.30;106735;1265;71936;-38
2024/03/18 02:44:28;;;;;;;6.70;2.50;;;;;;;5.09;77.47;99170.11;106721;1267;60312;-38
2024/03/18 02:46:55;;;;;;;6.10;2.70;;;;;;;5.07;77.47;99168.21;106751;1267;60319;-38
2024/03/18 02:49:23;;;;;;;9.80;2.70;;;;;;;5.07;77.67;99166.89;106752;1266;73868;-38
2024/03/18 02:51:56;;;;;;;4.80;2.50;;;;;;;5.08;77.64;99167.85;106730;1267;67588;-37
2024/03/18 02:54:24;;;;;;;9.60;2.90;;;;;;;5.15;77.28;99165.52;106728;1269;70657;-38
2024/03/18 02:56:51;;;;;;;8.00;2.60;;;;;;;5.17;77.20;99166.88;106990;1261;60322;-38
2024/03/18 02:59:18;;;;;;;13.00;3.10;;;;;;;5.09;77.24;99166.36;106231;1265;1002834;-38
2024/03/18 03:01:49;;;;;;;7.90;2.60;;;;;;;4.99;77.31;99169.59;106861;1260;73888;-38
2024/03/18 03:04:16;;;;;;;10.50;2.60;;;;;;;4.90;77.55;99168.70;106988;1261;66780;-38
2024/03/18 03:06:44;;;;;;;11.70;3.20;;;;;;;4.82;77.84;99170.17;107024;1266;72070;-38
2024/03/18 03:09:15;;;;;;;8.80;2.90;;;;;;;4.74;77.74;99176.70;106967;1263;61163;-37
2024/03/18 03:11:43;;;;;;;8.40;3.30;;;;;;;4.72;77.93;99173.61;106974;1265;60968;-38
2024/03/18 03:14:10;;;;;;;7.60;3.00;;;;;;;4.70;78.02;99170.40;106868;1261;73142;-37
2024/03/18 03:16:38;;;;;;;7.50;3.20;;;;;;;4.66;78.43;99173.17;107003;1265;66392;-38
2024/03/18 03:19:08;;;;;;;6.00;2.90;;;;;;;4.59;78.78;99169.67;106861;1260;72678;-37
2024/03/18 03:21:36;;;;;;;7.80;2.70;;;;;;;4.51;78.96;99170.40;106805;1266;60342;-37
2024/03/18 03:24:05;;;;;;;8.30;2.70;;;;;;;4.42;79.28;99167.36;106867;1261;60319;-38
2024/03/18 03:26:32;;;;;;;7.30;3.10;;;;;;;4.41;79.19;99167.17;106795;1261;73880;-38
2024/03/18 03:29:00;;;;;;;8.70;3.20;;;;;;;4.43;79.49;99164.87;106853;1263;66291;-38
2024/03/18 03:31:27;;;;;;;5.20;3.00;;;;;;;4.42;79.69;99159.77;106990;1263;71614;-37
2024/03/18 03:33:55;;;;;;;7.80;3.10;;;;;;;4.36;80.04;99157.54;106995;1260;60364;-37
2024/03/18 03:36:22;;;;;;;8.50;3.00;;;;;;;4.30;80.49;99155.67;107020;1261;60415;-38
2024/03/18 03:38:49;;;;;;;9.80;2.90;;;;;;;4.26;80.70;99152.09;107019;1261;73884;-37
2024/03/18 03:41:17;;;;;;;10.80;3.30;;;;;;;4.29;80.78;99152.27;107016;1265;66829;-37
2024/03/18 03:43:44;;;;;;;9.30;3.30;;;;;;;4.33;80.73;99149.15;107008;1266;72485;-37
2024/03/18 03:46:13;;;;;;;8.10;2.80;;;;;;;4.31;80.90;99149.77;107003;1266;59380;-38
2024/03/18 03:48:40;;;;;;;8.00;3.40;;;;;;;4.30;81.28;99145.35;106983;1263;59234;-37
2024/03/18 03:51:08;;;;;;;11.60;3.50;;;;;;;4.33;81.31;99143.19;106799;1263;73936;-37
2024/03/18 03:53:35;;;;;;;9.20;3.20;;;;;;;4.38;81.30;99139.84;106915;1260;66759;-38
2024/03/18 03:56:03;;;;;;;8.40;3.40;;;;;;;4.49;81.12;99135.69;107009;1265;72701;-37
2024/03/18 03:58:32;;;;;;;6.60;2.60;;;;;;;4.62;80.83;99138.45;106914;1266;60476;-38
2024/03/18 04:01:00;;;;;;;8.00;3.60;;;;;;;4.68;80.89;99134.34;106862;1261;60178;-38
2024/03/18 04:03:27;;;;;;;9.30;2.90;;;;;;;4.74;80.95;99135.58;106994;1265;73845;-37
2024/03/18 04:05:55;;;;;;;6.10;2.90;;;;;;;4.80;80.71;99135.88;107000;1266;66628;-38
2024/03/18 04:08:22;;;;;;;7.90;3.40;;;;;;;4.86;80.53;99137.38;106997;1261;71532;-38
2024/03/18 04:10:50;;;;;;;10.50;3.70;;;;;;;4.90;80.26;99137.83;106876;1264;59603;-37
2024/03/18 04:13:17;;;;;;;10.20;2.80;;;;;;;4.98;79.91;99139.98;106878;1261;60424;-38
2024/03/18 04:15:45;;;;;;;9.40;4.20;;;;;;;5.06;79.52;99135.75;106999;1265;72592;-38
2024/03/18 04:18:12;;;;;;;29.50;17.90;;;;;;;5.09;79.26;99133.55;106868;1266;67919;-38
2024/03/18 04:20:39;;;;;;;31.40;17.40;;;;;;;5.10;78.89;99134.52;106851;1261;72698;-37
2024/03/18 04:23:07;;;;;;;13.50;6.90;;;;;;;5.11;78.75;99136.95;106981;1265;60311;-38
2024/03/18 04:25:34;;;;;;;7.60;3.50;;;;;;;5.10;78.67;99140.30;106998;1260;60372;-37
2024/03/18 04:28:07;;;;;;;8.00;3.20;;;;;;;5.04;78.34;99147.36;106989;1260;72880;-37
2024/03/18 04:30:36;;;;;;;11.90;6.20;;;;;;;4.95;78.21;99152.46;106867;1265;66911;-38
2024/03/18 04:33:04;;;;;;;14.10;6.30;;;;;;;4.95;77.76;99157.15;107031;1260;71371;-37
2024/03/18 04:35:32;;;;;;;39.10;24.40;;;;;;;4.99;77.56;99154.66;106940;1260;60491;-38
2024/03/18 04:38:00;;;;;;;24.10;14.90;;;;;;;4.97;77.53;99160.00;107011;1260;60594;-37
2024/03/18 04:40:27;;;;;;;106.20;68.90;;;;;;;4.93;77.46;99158.92;106867;1263;72543;-37
2024/03/18 04:42:57;;;;;;;71.60;41.10;;;;;;;4.91;77.69;99161.11;106868;1260;67901;-37
2024/03/18 04:45:26;;;;;;;137.40;75.00;;;;;;;4.90;77.81;99158.23;106831;1266;72792;-37
2024/03/18 04:47:53;;;;;;;51.30;29.70;;;;;;;4.90;77.97;99162.77;106986;1261;60062;-37
2024/03/18 04:50:24;;;;;;;43.60;26.80;;;;;;;4.95;77.70;99158.21;106841;1264;60185;-37
2024/03/18 04:52:53;;;;;;;46.80;29.70;;;;;;;5.01;77.76;99149.75;106799;1262;72495;-37
2024/03/18 04:55:21;;;;;;;30.50;19.00;;;;;;;5.05;78.14;99152.66;106837;1266;67559;-37
2024/03/18 04:57:54;;;;;;;19.90;9.90;;;;;;;5.08;78.40;99150.96;106810;1264;71390;-37
2024/03/18 05:00:24;;;;;;;10.70;5.10;;;;;;;5.12;78.34;99149.59;106060;1268;1003585;-37
2024/03/18 05:02:51;;;;;;;6.70;2.80;;;;;;;5.12;78.17;99156.58;106751;1264;60296;-37
2024/03/18 05:05:19;;;;;;;7.80;3.50;;;;;;;5.07;78.10;99156.45;106790;1264;73871;-37
2024/03/18 05:07:47;;;;;;;10.90;3.80;;;;;;;4.96;78.11;99155.19;106822;1268;66765;-37
2024/03/18 05:10:21;;;;;;;9.60;3.20;;;;;;;4.93;77.97;99162.69;106758;1264;72690;-37
2024/03/18 05:12:48;;;;;;;9.80;3.40;;;;;;;4.91;78.15;99167.90;106793;1269;60608;-38
2024/03/18 05:15:16;;;;;;;10.10;3.20;;;;;;;4.85;78.51;99166.13;106816;1267;60336;-38
2024/03/18 05:17:43;;;;;;;6.60;3.00;;;;;;;4.79;78.76;99166.77;106786;1263;73895;-37
2024/03/18 05:20:14;;;;;;;11.00;3.90;;;;;;;4.79;79.01;99163.98;106790;1263;67602;-38
2024/03/18 05:22:41;;;;;;;9.30;3.40;;;;;;;4.79;79.55;99163.05;106800;1264;72730;-37
2024/03/18 05:25:13;;;;;;;11.10;3.50;;;;;;;4.90;79.55;99165.70;106820;1267;61223;-37
2024/03/18 05:27:40;;;;;;;10.90;3.40;;;;;;;4.99;79.30;99174.87;106805;1263;60434;-38
2024/03/18 05:30:08;;;;;;;12.10;3.40;;;;;;;4.99;79.38;99176.85;106781;1268;73161;-37
2024/03/18 05:32:36;;;;;;;9.60;3.50;;;;;;;4.96;79.38;99179.66;106804;1263;65595;-37
2024/03/18 05:35:04;;;;;;;9.20;3.70;;;;;;;4.95;79.58;99179.95;106818;1264;73160;-37
2024/03/18 05:37:31;;;;;;;12.10;3.60;;;;;;;4.97;79.75;99178.87;106812;1264;60549;-37
2024/03/18 05:40:03;;;;;;;10.60;4.00;;;;;;;4.98;79.73;99178.20;106826;1264;59352;-38
2024/03/18 05:42:31;;;;;;;10.10;3.50;;;;;;;5.04;79.58;99174.08;106856;1264;72617;-37
2024/03/18 05:44:59;;;;;;;9.70;3.30;;;;;;;5.14;79.36;99174.77;106905;1263;67602;-37
2024/03/18 05:47:27;;;;;;;14.70;3.90;;;;;;;5.16;79.39;99171.20;106878;1263;71451;-38
2024/03/18 05:49:54;;;;;;;9.90;3.70;;;;;;;5.18;79.53;99169.14;106835;1268;60313;-38
2024/03/18 05:52:23;;;;;;;8.60;3.80;;;;;;;5.21;79.65;99167.19;106989;1260;60053;-38
2024/03/18 05:54:50;;;;;;;9.50;3.80;;;;;;;5.27;79.73;99167.23;106884;1260;72926;-38
2024/03/18 05:57:18;;;;;;;10.30;3.90;;;;;;;5.38;79.46;99165.05;107000;1261;65923;-38
2024/03/18 05:59:45;;;;;;;9.20;3.70;;;;;;;5.45;79.30;99158.52;107007;1260;71077;-38
2024/03/18 06:02:12;;;;;;;8.00;3.90;;;;;;;5.56;79.10;99167.59;106741;1266;61253;-38
2024/03/18 06:04:42;;;;;;;10.90;3.90;;;;;;;5.59;79.18;99164.42;106905;1260;61208;-38
2024/03/18 06:07:09;;;;;;;9.00;4.10;;;;;;;5.65;78.96;99169.30;106813;1260;73436;-38
2024/03/18 06:09:36;;;;;;;11.70;4.10;;;;;;;5.69;78.93;99169.83;106968;1261;66444;-38
2024/03/18 06:12:05;;;;;;;11.80;4.10;;;;;;;5.74;78.68;99169.66;106963;1260;71502;-38
2024/03/18 06:14:32;;;;;;;10.70;4.50;;;;;;;5.84;78.12;99171.21;106849;1266;61215;-38
2024/03/18 06:16:59;;;;;;;11.20;5.20;;;;;;;5.94;77.84;99174.08;106981;1262;61228;-38
2024/03/18 06:19:33;;;;;;;12.40;5.90;;;;;;;5.96;77.75;99170.02;106995;1266;74661;-38
2024/03/18 06:22:05;;;;;;;11.40;4.60;;;;;;;5.99;77.63;99168.90;106956;1260;66913;-38
2024/03/18 06:27:23;;;;;;;12.90;5.80;;;;;;;6.01;77.31;99167.09;106744;1264;61346;-38
2024/03/18 06:29:51;;;;;;;13.30;5.70;;;;;;;6.03;77.17;99164.41;106980;1260;61247;-38
2024/03/18 06:32:18;;;;;;;10.10;5.10;;;;;;;6.12;76.89;99157.02;106990;1261;74732;-38
2024/03/18 06:34:46;;;;;;;11.80;4.80;;;;;;;6.20;76.54;99157.44;106985;1260;66698;-38
2024/03/18 06:37:17;;;;;;;9.90;4.50;;;;;;;6.25;76.30;99160.44;106910;1266;71794;-38
2024/03/18 06:39:45;;;;;;;13.30;5.70;;;;;;;6.26;76.04;99158.63;106912;1261;61362;-38
2024/03/18 06:42:13;;;;;;;8.60;4.60;;;;;;;6.23;75.75;99159.91;106955;1261;60480;-38
2024/03/18 06:44:43;;;;;;;12.20;4.90;;;;;;;6.20;75.55;99158.52;106867;1261;73945;-38
2024/03/18 06:47:10;;;;;;;;;;;;;;;6.15;75.32;99158.66;107031;1261;66409;-38
2024/03/18 06:49:38;;;;;;;11.20;4.60;;;;;;;6.07;75.07;99160.00;107389;1254;72944;-38
2024/03/18 06:52:06;;;;;;;12.10;4.90;;;;;;;6.01;75.48;99160.95;107407;1254;61929;-38
2024/03/18 06:54:34;;;;;;;11.90;4.30;;;;;;;6.09;75.68;99158.92;107469;1255;61180;-38
2024/03/18 06:57:01;;;;;;;10.30;4.70;;;;;;;6.16;75.61;99158.84;107510;1254;73330;-38
2024/03/18 06:59:29;;;;;;;11.30;4.70;;;;;;;6.15;75.50;99161.11;107470;1254;67703;-38
2024/03/18 07:01:56;;;;;;;10.50;5.30;;;;;;;6.15;75.60;99158.35;107499;1254;71720;-38
2024/03/18 07:04:23;;;;;;;10.40;4.10;;;;;;;6.13;75.31;99147.27;107489;1254;62238;-37
2024/03/18 07:06:51;;;;;;;12.90;5.30;;;;;;;6.21;75.02;99156.60;106775;1254;1002520;-37
2024/03/18 07:09:21;;;;;;;10.10;3.60;;;;;;;6.23;74.71;99160.52;107490;1254;73492;-37
2024/03/18 07:11:49;;;;;;;10.50;4.30;;;;;;;6.23;74.55;99157.21;107480;1254;68512;-37
2024/03/18 07:14:16;;;;;;;7.50;3.80;;;;;;;6.30;74.23;99154.21;107478;1254;71443;-37
2024/03/18 07:16:44;;;;;;;10.10;4.90;;;;;;;6.35;74.46;99152.21;107486;1254;61229;-37
2024/03/18 07:19:11;;;;;;;9.60;4.80;;;;;;;6.34;74.18;99148.05;107497;1254;61086;-37
2024/03/18 07:21:39;;;;;;;8.50;4.40;;;;;;;6.29;74.41;99143.36;107391;1254;74974;-37
2024/03/18 07:24:07;;;;;;;12.50;4.60;;;;;;;6.36;74.53;99148.59;107401;1260;66318;-37
2024/03/18 07:26:34;;;;;;;9.60;4.50;;;;;;;6.39;74.69;99150.21;107448;1254;71979;-37
2024/03/18 07:29:01;;;;;;;9.10;3.90;;;;;;;6.46;74.84;99149.64;107420;1254;61441;-37
2024/03/18 07:31:30;;;;;;;8.80;4.10;;;;;;;6.60;74.13;99152.15;107483;1253;61126;-37
2024/03/18 07:33:58;;;;;;;8.90;4.40;;;;;;;6.66;73.23;99155.80;107452;1254;73892;-37
2024/03/18 07:36:25;;;;;;;8.30;4.10;;;;;;;6.62;73.28;99153.30;107490;1258;68019;-36
2024/03/18 07:38:52;;;;;;;9.90;4.30;;;;;;;6.59;73.11;99157.04;107468;1254;72994;-37
2024/03/18 07:41:20;;;;;;;10.80;4.10;;;;;;;6.60;73.28;99157.84;107400;1253;61238;-36
2024/03/18 07:43:48;;;;;;;9.50;3.90;;;;;;;6.62;72.87;99157.70;107484;1253;61099;-37
2024/03/18 07:46:15;;;;;;;8.90;4.10;;;;;;;6.61;72.67;99160.88;107479;1254;75383;-37
2024/03/18 07:48:43;;;;;;;8.60;3.90;;;;;;;6.60;73.06;99159.46;107490;1260;70232;-37
2024/03/18 07:51:11;;;;;;;9.80;3.60;;;;;;;6.72;73.16;99158.83;107444;1259;71460;-37
2024/03/18 07:53:38;;;;;;;8.90;4.10;;;;;;;6.85;72.63;99157.48;107486;1254;60418;-37
2024/03/18 07:56:06;;;;;;;7.80;3.70;;;;;;;6.90;71.49;99156.39;107515;1254;61250;-37
2024/03/18 07:58:34;;;;;;;9.30;3.80;;;;;;;6.87;71.64;99152.08;107504;1254;73890;-37
2024/03/18 08:01:02;;;;;;;11.50;4.10;;;;;;;6.86;72.21;99147.58;107498;1254;66302;-37
2024/03/18 08:03:29;;;;;;;9.60;4.20;;;;;;;7.00;72.17;99156.60;107423;1254;73299;-37
2024/03/18 08:05:57;;;;;;;9.00;4.10;;;;;;;7.04;72.26;99157.90;107478;1259;61406;-37
2024/03/18 08:08:24;;;;;;;8.10;3.70;;;;;;;7.08;71.77;99154.55;107503;1253;61211;-37
2024/03/18 08:10:52;;;;;;;7.20;3.40;;;;;;;7.08;71.43;99151.23;107495;1254;74744;-38
2024/03/18 08:13:19;;;;;;;9.90;3.60;;;;;;;7.18;70.60;99150.97;107504;1253;66482;-38
2024/03/18 08:15:47;;;;;;;7.30;3.30;;;;;;;7.25;70.42;99155.19;107455;1253;72719;-38
2024/03/18 08:18:15;;;;;;;9.40;4.00;;;;;;;7.28;70.56;99152.45;107512;1254;60378;-38
2024/03/18 08:20:42;;;;;;;5.90;3.70;;;;;;;7.31;70.56;99149.42;107472;1253;61094;-37
2024/03/18 08:23:10;;;;;;;8.60;3.60;;;;;;;7.32;70.45;99148.38;107521;1253;74783;-38
2024/03/18 08:25:38;;;;;;;11.30;3.50;;;;;;;7.35;69.73;99149.77;107559;1254;66659;-38
2024/03/18 08:28:05;;;;;;;8.60;3.50;;;;;;;7.34;69.74;99154.92;107507;1258;73102;-37
2024/03/18 08:30:33;;;;;;;6.10;3.30;;;;;;;7.32;69.58;99155.55;107391;1254;61128;-38
2024/03/18 08:33:00;;;;;;;9.30;3.80;;;;;;;7.26;69.06;99155.84;107437;1254;61266;-38
2024/03/18 08:35:46;;;;;;;8.10;3.80;;;;;;;7.20;69.30;99153.35;107534;1253;75656;-38
2024/03/18 08:38:13;;;;;;;8.10;3.60;;;;;;;7.22;69.76;99155.02;107493;1254;68012;-38
2024/03/18 08:40:41;;;;;;;10.00;4.00;;;;;;;7.28;69.59;99154.90;107589;1254;73022;-38
2024/03/18 08:43:08;;;;;;;7.20;3.50;;;;;;;7.32;69.10;99155.23;107486;1254;60769;-38
2024/03/18 08:45:36;;;;;;;10.40;4.30;;;;;;;7.32;69.28;99154.92;107528;1258;60107;-38
2024/03/18 08:48:04;;;;;;;5.20;3.70;;;;;;;7.31;68.90;99156.12;107505;1254;73492;-38
2024/03/18 08:50:32;;;;;;;10.60;4.20;;;;;;;7.27;68.76;99155.00;107531;1254;67947;-38
2024/03/18 08:53:01;;;;;;;7.80;3.50;;;;;;;7.26;68.87;99155.98;107510;1260;72817;-38
2024/03/18 08:55:29;;;;;;;11.30;4.50;;;;;;;7.24;68.81;99154.33;107461;1253;61281;-38
2024/03/18 08:57:56;;;;;;;8.90;3.80;;;;;;;7.23;68.93;99152.37;107459;1253;61239;-38
2024/03/18 09:00:25;;;;;;;6.50;3.70;;;;;;;7.23;69.11;99151.66;107461;1254;75018;-38
2024/03/18 09:02:53;;;;;;;9.70;4.30;;;;;;;7.24;69.44;99152.62;107525;1254;68088;-38
2024/03/18 09:05:20;;;;;;;9.60;3.90;;;;;;;7.24;69.40;99158.16;107491;1255;73120;-38
2024/03/18 09:07:48;;;;;;;8.20;3.60;;;;;;;7.31;69.18;99160.52;107497;1254;64053;-38
2024/03/18 09:10:15;;;;;;;11.30;4.10;;;;;;;7.35;68.88;99160.02;107504;1254;61363;-38
2024/03/18 09:12:43;;;;;;;7.60;3.60;;;;;;;7.35;68.98;99158.41;106746;1254;1002905;-38
2024/03/18 09:15:11;;;;;;;9.10;3.80;;;;;;;7.33;69.04;99158.42;107512;1254;67826;-38
2024/03/18 09:17:38;;;;;;;7.20;3.90;;;;;;;7.36;68.86;99164.44;107492;1254;73624;-38
2024/03/18 09:20:09;;;;;;;6.90;3.30;;;;;;;7.36;68.33;99161.52;107464;1254;60378;-38
2024/03/18 09:22:37;;;;;;;8.50;3.90;;;;;;;7.34;68.42;99159.62;107588;1253;61288;-37
2024/03/18 09:25:09;;;;;;;6.80;3.40;;;;;;;7.32;68.52;99156.39;107450;1259;75063;-38
2024/03/18 09:27:37;;;;;;;7.90;4.10;;;;;;;7.29;68.96;99154.47;107347;1254;67705;-37
2024/03/18 09:30:05;;;;;;;7.40;3.90;;;;;;;7.31;69.54;99152.45;107424;1254;71428;-37
2024/03/18 09:32:33;;;;;;;8.80;3.50;;;;;;;7.42;69.55;99155.77;107485;1254;61226;-38
2024/03/18 09:35:01;;;;;;;7.10;3.20;;;;;;;7.53;68.92;99153.37;107377;1254;61145;-38
2024/03/18 09:37:29;;;;;;;7.20;3.20;;;;;;;7.49;68.04;99154.26;107452;1255;73520;-38
2024/03/18 09:39:57;;;;;;;5.60;2.80;;;;;;;7.41;67.45;99154.96;107468;1254;66708;-38
2024/03/18 09:42:24;;;;;;;6.40;2.90;;;;;;;7.29;66.32;99153.39;107470;1253;72649;-38
2024/03/18 09:44:51;;;;;;;4.90;2.60;;;;;;;7.17;66.18;99150.10;107461;1254;61205;-38
2024/03/18 09:47:26;;;;;;;6.80;2.90;;;;;;;7.11;66.57;99148.54;107499;1253;61937;-38
2024/03/18 09:50:10;;;;;;;5.90;2.50;;;;;;;7.03;66.69;99147.77;107467;1254;73859;-38
2024/03/18 09:52:38;;;;;;;3.70;2.20;;;;;;;6.99;66.65;99145.80;107524;1256;68054;-37
2024/03/18 09:55:18;;;;;;;5.00;2.80;;;;;;;6.94;66.21;99148.36;107432;1255;72100;-37
2024/03/18 09:57:46;;;;;;;6.60;2.50;;;;;;;6.86;66.44;99148.10;107495;1253;61140;-37
2024/03/18 10:00:22;;;;;;;6.50;2.80;;;;;;;6.74;66.67;99144.59;107510;1253;61297;-37
2024/03/18 10:02:49;;;;;;;5.30;2.20;;;;;;;6.60;66.39;99145.30;107544;1253;74784;-37
2024/03/18 10:05:18;;;;;;;2.70;1.90;;;;;;;6.48;66.74;99142.50;107602;1253;68175;-37
2024/03/18 10:07:46;;;;;;;5.20;2.50;;;;;;;6.51;67.79;99139.52;107556;1254;71445;-37
2024/03/18 10:10:16;;;;;;;6.40;2.40;;;;;;;6.57;68.56;99138.21;107554;1254;61243;-37
2024/03/18 10:12:44;;;;;;;4.90;2.70;;;;;;;6.63;68.98;99139.55;107527;1254;62329;-37
2024/03/18 10:15:12;;;;;;;4.90;2.20;;;;;;;6.67;68.73;99138.84;107517;1254;76883;-37
2024/03/18 10:17:41;;;;;;;4.80;2.30;;;;;;;6.68;67.40;99129.39;107560;1254;68345;-37
2024/03/18 10:20:18;;;;;;;6.10;2.90;;;;;;;6.60;65.99;99130.46;107614;1254;73125;-37
2024/03/18 10:22:53;;;;;;;6.90;2.60;;;;;;;6.41;64.71;99130.03;107502;1254;61214;-37
2024/03/18 10:25:24;;;;;;;5.60;2.80;;;;;;;6.26;65.95;99129.63;107617;1254;61086;-37
2024/03/18 10:27:53;;;;;;;6.00;2.40;;;;;;;6.18;66.96;99129.05;107507;1254;73483;-37
2024/03/18 10:30:21;;;;;;;6.10;2.40;;;;;;;6.13;67.56;99128.84;107532;1254;66070;-37
2024/03/18 10:32:52;;;;;;;6.40;2.80;;;;;;;6.13;67.44;99128.84;107505;1254;73850;-37
2024/03/18 10:35:26;;;;;;;3.50;2.00;;;;;;;6.14;68.11;99129.71;107526;1254;61195;-37
2024/03/18 10:37:58;;;;;;;3.20;2.20;;;;;;;6.08;67.57;99128.19;107562;1254;61096;-37
2024/03/18 10:40:36;;;;;;;4.60;2.30;;;;;;;5.95;67.61;99130.60;107417;1259;74829;-37
2024/03/18 10:43:14;;;;;;;6.70;2.70;;;;;;;5.84;68.53;99127.52;107452;1254;67195;-37
2024/03/18 10:45:46;;;;;;;4.20;2.40;;;;;;;5.79;69.19;99125.90;107467;1254;71311;-37
2024/03/18 10:48:17;;;;;;;4.90;3.00;;;;;;;5.72;69.20;99124.27;107406;1254;61467;-37
2024/03/18 10:50:45;;;;;;;4.50;2.70;;;;;;;5.65;70.17;99125.06;107481;1258;59243;-37
2024/03/18 10:53:24;;;;;;;6.20;2.60;;;;;;;5.71;70.28;99123.71;107373;1258;75277;-37
2024/03/18 10:56:02;;;;;;;4.90;2.30;;;;;;;5.77;70.50;99122.44;107492;1254;68096;-38
2024/03/18 10:58:30;;;;;;;4.80;2.20;;;;;;;5.74;70.74;99118.35;107531;1254;70483;-38
2024/03/18 11:00:58;;;;;;;3.30;2.60;;;;;;;5.70;70.09;99121.44;107465;1257;61282;-38
2024/03/18 11:03:26;;;;;;;4.40;3.00;;;;;;;5.63;70.63;99119.61;107452;1253;61246;-38
2024/03/18 11:05:58;;;;;;;5.50;2.70;;;;;;;5.59;71.31;99119.77;107465;1254;74787;-38
2024/03/18 11:08:26;;;;;;;3.90;2.70;;;;;;;5.53;71.08;99126.46;107524;1253;66883;-38
2024/03/18 11:10:55;;;;;;;4.70;2.70;;;;;;;5.42;70.90;99120.70;107571;1253;72818;-38
2024/03/18 11:13:33;;;;;;;4.90;2.60;;;;;;;5.41;71.44;99116.51;107528;1253;61233;-38
2024/03/18 11:16:08;;;;;;;5.40;2.80;;;;;;;5.45;72.15;99118.81;107525;1253;61211;-38
2024/03/18 11:18:43;;;;;;;6.20;3.00;;;;;;;5.44;72.67;99121.45;107575;1258;75251;-38
2024/03/18 11:21:18;;;;;;;5.20;3.10;;;;;;;5.37;72.50;99118.83;107587;1253;67624;-38
2024/03/18 11:24:00;;;;;;;4.50;3.20;;;;;;;5.22;72.77;99114.09;107461;1254;73678;-38
2024/03/18 11:26:27;;;;;;;6.50;3.00;;;;;;;5.09;73.43;99109.14;107501;1254;61179;-38
2024/03/18 11:29:03;;;;;;;5.30;2.60;;;;;;;4.96;74.10;99104.36;107492;1254;61157;-38
2024/03/18 11:31:37;;;;;;;4.60;2.30;;;;;;;4.93;74.42;99104.79;107475;1253;73992;-37
2024/03/18 11:34:07;;;;;;;3.60;2.60;;;;;;;4.89;74.73;99107.41;107490;1254;66833;-38
2024/03/18 11:36:38;;;;;;;3.50;2.60;;;;;;;4.77;75.14;99107.14;107457;1254;72999;-37
2024/03/18 11:39:12;;;;;;;3.90;3.00;;;;;;;4.64;75.37;99108.81;107557;1254;61215;-38
2024/03/18 11:41:39;;;;;;;4.90;3.00;;;;;;;4.53;75.81;99111.07;107537;1254;60173;-38